Terminal Aerodrome Forecast
Issued by NWS Wilmington, NC

Current Version | Previous Version | Graphics & Text | Print | Product List | Glossary Off
Versions: 1 2 3 4 5 6 7 8 9 10 11 12 13 14

880
FTUS42 KILM 252323
TAFMYR
TAF
KMYR 252323Z 2600/2624 17009KT P6SM SCT060 SCT200
     FM260300 14006KT P6SM BKN080
     FM261400 14004KT P6SM SCT035
     FM261600 15010KT P6SM SCT045
     FM261800 17011KT P6SM SCT150
      AMD LTD TO CLD VIS AND WIND 2603/2610=

USA.gov is the U.S. government's official web portal to all federal, state and local government web resources and services.